createdAt,value
2018-11-05T00:02:07.831Z,82.30
2018-11-05T00:05:11.922Z,82.00
2018-11-05T00:08:16.026Z,81.71
2018-11-05T00:11:20.122Z,82.17
2018-11-05T00:14:24.219Z,81.58
2018-11-05T00:17:28.349Z,81.82
2018-11-05T00:20:32.450Z,81.97
2018-11-05T00:23:36.552Z,82.05
2018-11-05T00:26:40.646Z,82.34
2018-11-05T00:29:44.738Z,82.99
2018-11-05T00:32:48.830Z,82.74
2018-11-05T00:35:52.921Z,83.23
2018-11-05T00:38:57.014Z,82.49
2018-11-05T00:42:01.113Z,83.75
2018-11-05T00:45:06.594Z,83.59
2018-11-05T00:48:10.692Z,83.77
2018-11-05T00:51:14.790Z,84.30
2018-11-05T00:54:19.712Z,83.90
2018-11-05T00:57:23.806Z,83.51
2018-11-05T01:00:27.953Z,83.04
2018-11-05T01:03:32.058Z,82.70
2018-11-05T01:06:36.153Z,82.77
2018-11-05T01:09:40.259Z,82.37
2018-11-05T01:12:44.370Z,83.17
2018-11-05T01:15:48.469Z,83.77
2018-11-05T01:18:52.571Z,83.87
2018-11-05T01:21:56.680Z,83.15
2018-11-05T01:25:00.847Z,82.88
2018-11-05T01:28:05.126Z,82.43
2018-11-05T01:31:09.210Z,83.46
2018-11-05T01:34:13.304Z,83.28
2018-11-05T01:37:17.515Z,83.61
2018-11-05T01:40:21.567Z,83.62
2018-11-05T01:43:25.721Z,83.37
2018-11-05T01:46:29.874Z,83.46
2018-11-05T01:49:34.074Z,82.34
2018-11-05T01:52:38.230Z,82.47
2018-11-05T01:55:42.383Z,82.36
2018-11-05T01:58:46.533Z,82.09
2018-11-05T02:01:50.678Z,82.79
2018-11-05T02:04:54.826Z,82.63
2018-11-05T02:07:58.978Z,83.14
2018-11-05T02:11:03.134Z,82.43
2018-11-05T02:14:07.278Z,82.84
2018-11-05T02:17:11.462Z,83.24
2018-11-05T02:20:16.530Z,81.73
2018-11-05T02:23:20.693Z,81.75
2018-11-05T02:26:24.798Z,81.72
2018-11-05T02:29:28.912Z,82.43
2018-11-05T02:32:33.037Z,82.49
2018-11-05T02:35:37.150Z,81.74
2018-11-05T02:38:41.274Z,81.91
2018-11-05T02:41:45.372Z,82.22
2018-11-05T02:44:49.477Z,82.51
2018-11-05T02:47:53.594Z,82.24
2018-11-05T02:50:57.701Z,83.12
2018-11-05T02:54:01.915Z,81.90
2018-11-05T02:57:06.332Z,82.47
2018-11-05T03:00:13.532Z,83.27
2018-11-05T03:03:17.816Z,83.42
2018-11-05T03:06:21.818Z,82.93
2018-11-05T03:09:25.985Z,82.98
2018-11-05T03:12:30.126Z,82.65
2018-11-05T03:15:34.269Z,82.37
2018-11-05T03:18:38.417Z,82.60
2018-11-05T03:21:42.566Z,82.78
2018-11-05T03:24:46.741Z,82.94
2018-11-05T03:27:50.926Z,81.67
2018-11-05T03:30:55.059Z,82.87
2018-11-05T03:33:59.218Z,82.58
2018-11-05T03:37:03.539Z,82.65
2018-11-05T03:40:08.041Z,82.40
2018-11-05T03:43:12.198Z,82.43
2018-11-05T03:46:16.342Z,81.84
2018-11-05T03:49:20.562Z,81.32
2018-11-05T03:52:24.664Z,81.98
2018-11-05T03:55:28.799Z,80.56
2018-11-05T03:58:32.908Z,81.19
2018-11-05T04:01:37.016Z,82.05
2018-11-05T04:04:41.161Z,81.89
2018-11-05T04:07:45.280Z,82.16
2018-11-05T04:10:49.394Z,80.86
2018-11-05T04:13:53.508Z,81.23
2018-11-05T04:16:57.614Z,81.22
2018-11-05T04:20:01.719Z,81.11
2018-11-05T04:23:06.003Z,81.47
2018-11-05T04:26:10.106Z,81.22
2018-11-05T04:29:14.227Z,83.78
2018-11-05T04:32:18.438Z,83.14
2018-11-05T04:35:22.555Z,83.03
2018-11-05T04:38:26.654Z,81.68
2018-11-05T04:41:30.757Z,81.42
2018-11-05T04:44:34.865Z,82.43
2018-11-05T04:47:39.030Z,81.67
2018-11-05T04:50:43.147Z,81.47
2018-11-05T04:53:47.310Z,81.88
2018-11-05T04:56:51.451Z,82.13
2018-11-05T04:59:55.654Z,81.31
2018-11-05T05:02:59.802Z,81.67
2018-11-05T05:06:03.955Z,82.92
2018-11-05T05:09:11.213Z,82.16
2018-11-05T05:12:15.358Z,81.69
2018-11-05T05:15:19.499Z,81.61
2018-11-05T05:18:23.655Z,82.34
2018-11-05T05:21:27.830Z,80.99
2018-11-05T05:24:31.978Z,80.69
2018-11-05T05:27:36.126Z,81.11
2018-11-05T05:30:40.282Z,81.41
2018-11-05T05:33:44.593Z,80.61
2018-11-05T05:36:48.665Z,81.83
2018-11-05T05:39:52.814Z,81.25
2018-11-05T05:42:56.954Z,82.40
2018-11-05T05:46:01.110Z,83.18
2018-11-05T05:49:05.632Z,83.18
2018-11-05T05:52:09.782Z,83.22
2018-11-05T05:55:13.945Z,82.67
2018-11-05T05:58:18.093Z,82.76
2018-11-05T06:01:22.263Z,81.32
2018-11-05T06:04:26.449Z,81.89
2018-11-05T06:07:30.630Z,81.48
2018-11-05T06:10:34.786Z,81.58
2018-11-05T06:13:38.931Z,82.22
2018-11-05T06:16:43.075Z,81.47
2018-11-05T06:19:47.230Z,81.34
2018-11-05T06:22:51.419Z,82.44
2018-11-05T06:25:55.573Z,83.15
2018-11-05T06:28:59.767Z,84.60
2018-11-05T06:32:03.922Z,84.12
2018-11-05T06:35:08.842Z,84.00
2018-11-05T06:38:12.990Z,84.77
2018-11-05T06:41:17.192Z,86.01
2018-11-05T06:44:21.405Z,88.10
2018-11-05T06:47:25.458Z,86.55
2018-11-05T06:50:29.605Z,86.10
2018-11-05T06:53:33.764Z,87.40
2018-11-05T06:56:37.919Z,88.76
2018-11-05T06:59:42.070Z,88.21
2018-11-05T07:02:46.386Z,88.28
2018-11-05T07:05:50.574Z,88.26
2018-11-05T07:08:54.676Z,88.91
2018-11-05T07:11:58.818Z,88.94
2018-11-05T07:15:03.082Z,88.94
2018-11-05T07:18:07.242Z,88.27
2018-11-05T07:21:11.372Z,89.04
2018-11-05T07:24:15.506Z,88.55
2018-11-05T07:27:19.762Z,88.30
2018-11-05T07:30:24.886Z,88.47
2018-11-05T07:33:29.107Z,88.17
2018-11-05T07:36:33.177Z,88.29
2018-11-05T07:39:37.327Z,88.88
2018-11-05T07:42:41.566Z,88.93
2018-11-05T07:45:45.707Z,89.26
2018-11-05T07:48:49.839Z,89.19
2018-11-05T07:51:53.994Z,89.25
2018-11-05T07:54:58.320Z,88.97
2018-11-05T07:58:02.462Z,89.30
2018-11-05T08:01:07.027Z,90.32
2018-11-05T08:04:11.187Z,90.54
2018-11-05T08:07:15.335Z,89.95
2018-11-05T08:10:19.495Z,89.47
2018-11-05T08:13:23.638Z,89.71
2018-11-05T08:16:27.786Z,89.76
2018-11-05T08:19:31.943Z,88.48
2018-11-05T08:22:36.077Z,88.93
2018-11-05T08:25:40.226Z,88.84
2018-11-05T08:28:44.482Z,88.41
2018-11-05T08:31:48.637Z,87.47
2018-11-05T08:34:52.890Z,87.05
2018-11-05T08:37:57.046Z,86.84
2018-11-05T08:41:01.195Z,86.54
2018-11-05T08:44:05.933Z,86.71
2018-11-05T08:47:10.118Z,86.04
2018-11-05T08:50:15.568Z,85.40
2018-11-05T08:53:19.662Z,85.59
2018-11-05T08:56:23.819Z,84.42
2018-11-05T08:59:27.962Z,84.57
2018-11-05T09:02:32.118Z,84.39
2018-11-05T09:05:36.276Z,85.52
2018-11-05T09:08:40.428Z,86.67
2018-11-05T09:11:44.696Z,86.26
2018-11-05T09:14:48.743Z,85.16
2018-11-05T09:17:53.137Z,84.95
2018-11-05T09:20:57.342Z,86.00
2018-11-05T09:24:01.445Z,85.54
2018-11-05T09:27:06.014Z,86.01
2018-11-05T09:30:14.425Z,85.38
2018-11-05T09:33:18.574Z,84.44
2018-11-05T09:36:22.710Z,83.94
2018-11-05T09:39:26.886Z,83.05
2018-11-05T09:42:31.061Z,83.91
2018-11-05T09:45:35.306Z,83.42
2018-11-05T09:48:39.461Z,84.25
2018-11-05T09:51:43.627Z,84.19
2018-11-05T09:54:47.777Z,82.60
2018-11-05T09:57:51.926Z,82.38
2018-11-05T10:00:56.094Z,83.32
2018-11-05T10:04:00.294Z,84.09
2018-11-05T10:07:05.159Z,82.14
2018-11-05T10:10:10.607Z,82.92
2018-11-05T10:13:14.766Z,82.60
2018-11-05T10:16:18.985Z,83.32
2018-11-05T10:19:23.079Z,81.06
2018-11-05T10:22:27.242Z,80.15
2018-11-05T10:25:31.402Z,80.67
2018-11-05T10:28:35.558Z,80.30
2018-11-05T10:31:39.751Z,80.87
2018-11-05T10:34:43.879Z,79.60
2018-11-05T10:37:48.042Z,79.35
2018-11-05T10:40:52.206Z,79.38
2018-11-05T10:43:56.367Z,78.90
2018-11-05T10:47:00.521Z,79.31
2018-11-05T10:50:04.738Z,79.94
2018-11-05T10:53:08.854Z,78.71
2018-11-05T10:56:12.971Z,78.86
2018-11-05T10:59:17.090Z,76.48
2018-11-05T11:02:26.490Z,73.44
2018-11-05T11:05:31.661Z,70.28
2018-11-05T11:08:35.764Z,69.08
2018-11-05T11:11:39.870Z,68.37
2018-11-05T11:14:43.993Z,62.93
2018-11-05T11:17:48.090Z,56.91
2018-11-05T11:20:52.212Z,55.78
2018-11-05T11:23:56.322Z,56.51
2018-11-05T11:27:00.438Z,55.60
2018-11-05T11:30:04.541Z,56.52
2018-11-05T11:33:08.664Z,58.34
2018-11-05T11:36:12.776Z,59.45
2018-11-05T11:39:16.882Z,57.58
2018-11-05T11:42:21.097Z,59.21
2018-11-05T11:45:25.473Z,59.26
2018-11-05T11:48:29.577Z,60.50
2018-11-05T11:51:33.694Z,60.70
2018-11-05T11:54:37.837Z,62.70
2018-11-05T11:57:42.219Z,61.24
2018-11-05T12:00:46.329Z,62.18
2018-11-05T12:03:50.584Z,62.66
2018-11-05T12:06:54.656Z,62.34
2018-11-05T12:09:58.774Z,62.08
2018-11-05T12:13:02.892Z,61.86
2018-11-05T12:16:07.051Z,61.99
2018-11-05T12:19:11.138Z,64.27
2018-11-05T12:22:15.269Z,64.13
2018-11-05T12:25:19.379Z,65.20
2018-11-05T12:28:23.487Z,65.29
2018-11-05T12:31:27.585Z,62.77
2018-11-05T12:34:31.717Z,59.83
2018-11-05T12:37:35.831Z,58.11
2018-11-05T12:40:39.950Z,52.27
2018-11-05T12:43:44.062Z,45.61
2018-11-05T12:46:48.204Z,41.67
2018-11-05T12:49:52.320Z,39.87
2018-11-05T12:52:56.446Z,38.78
2018-11-05T12:56:00.556Z,42.92
2018-11-05T12:59:04.766Z,45.37
2018-11-05T13:02:08.874Z,46.53
2018-11-05T13:05:13.826Z,48.47
2018-11-05T13:08:17.942Z,50.93
2018-11-05T13:11:22.074Z,52.85
2018-11-05T13:14:26.178Z,50.87
2018-11-05T13:17:30.286Z,44.47
2018-11-05T13:20:34.394Z,42.03
2018-11-05T13:23:42.625Z,39.04
2018-11-05T13:26:46.758Z,37.44
2018-11-05T13:29:50.875Z,35.27
2018-11-05T13:32:54.981Z,35.81
2018-11-05T13:35:59.075Z,37.39
2018-11-05T13:39:03.195Z,38.85
2018-11-05T13:42:07.366Z,39.31
2018-11-05T13:45:12.676Z,39.08
2018-11-05T13:48:16.994Z,44.16
2018-11-05T13:51:20.794Z,47.04
2018-11-05T13:54:24.954Z,45.35
2018-11-05T13:57:29.054Z,44.24
2018-11-05T14:00:33.143Z,43.71
2018-11-05T14:03:37.250Z,44.80
2018-11-05T14:06:41.383Z,46.12
2018-11-05T14:09:46.637Z,47.63
2018-11-05T14:12:51.173Z,48.47
2018-11-05T14:15:55.218Z,52.15
2018-11-05T14:18:59.326Z,52.87
2018-11-05T14:22:03.434Z,54.28
2018-11-05T14:25:10.030Z,55.72
2018-11-05T14:28:14.493Z,56.80
2018-11-05T14:31:18.528Z,57.80
2018-11-05T14:34:22.687Z,58.48
2018-11-05T14:37:26.810Z,59.19
2018-11-05T14:40:30.971Z,60.81
2018-11-05T14:43:35.219Z,61.43
2018-11-05T14:46:39.299Z,61.50
2018-11-05T14:49:43.449Z,62.93
2018-11-05T14:52:47.633Z,64.13
2018-11-05T14:55:51.754Z,64.24
2018-11-05T14:58:56.274Z,64.67
2018-11-05T15:02:05.629Z,64.86
2018-11-05T15:05:10.957Z,66.06
2018-11-05T15:08:15.118Z,66.71
2018-11-05T15:11:19.255Z,67.50
2018-11-05T15:14:23.410Z,68.46
2018-11-05T15:17:27.559Z,68.91
2018-11-05T15:20:31.793Z,69.69
2018-11-05T15:23:35.888Z,70.04
2018-11-05T15:26:40.066Z,70.51
2018-11-05T15:29:44.192Z,71.11
2018-11-05T15:32:48.406Z,71.70
2018-11-05T15:35:52.508Z,72.31
2018-11-05T15:38:56.659Z,72.45
2018-11-05T15:42:00.818Z,73.17
2018-11-05T15:45:06.322Z,73.20
2018-11-05T15:48:10.472Z,73.46
2018-11-05T15:51:14.761Z,73.90
2018-11-05T15:54:18.882Z,74.64
2018-11-05T15:57:22.903Z,74.65
2018-11-05T16:00:27.061Z,75.48
2018-11-05T16:03:31.228Z,75.16
2018-11-05T16:06:35.390Z,75.65
2018-11-05T16:09:40.408Z,76.20
2018-11-05T16:12:44.562Z,75.69
2018-11-05T16:15:48.713Z,75.98
2018-11-05T16:18:52.866Z,76.56
2018-11-05T16:21:57.018Z,76.71
2018-11-05T16:25:01.466Z,76.25
2018-11-05T16:28:06.522Z,76.66
2018-11-05T16:31:10.661Z,76.87
2018-11-05T16:34:14.949Z,76.88
2018-11-05T16:37:19.047Z,77.45
2018-11-05T16:40:23.163Z,77.90
2018-11-05T16:43:27.279Z,78.56
2018-11-05T16:46:31.386Z,78.88
2018-11-05T16:49:35.506Z,78.79
2018-11-05T16:52:39.615Z,79.41
2018-11-05T16:55:43.742Z,78.94
2018-11-05T16:58:47.854Z,78.36
2018-11-05T17:01:52.372Z,78.59
2018-11-05T17:04:56.086Z,78.76
2018-11-05T17:08:00.291Z,78.81
2018-11-05T17:11:04.447Z,78.98
2018-11-05T17:14:08.598Z,78.86
2018-11-05T17:17:12.815Z,79.17
2018-11-05T17:20:18.124Z,78.90
2018-11-05T17:23:22.271Z,79.21
2018-11-05T17:26:26.491Z,79.19
2018-11-05T17:29:30.530Z,79.70
2018-11-05T17:32:34.690Z,78.91
2018-11-05T17:35:38.843Z,79.84
2018-11-05T17:38:43.068Z,79.18
2018-11-05T17:41:47.247Z,79.65
2018-11-05T17:44:51.407Z,79.29
2018-11-05T17:47:55.569Z,79.01
2018-11-05T17:50:59.845Z,79.73
2018-11-05T17:54:03.982Z,80.29
2018-11-05T17:57:08.293Z,80.49
2018-11-05T18:00:14.953Z,80.26
2018-11-05T18:03:19.088Z,80.80
2018-11-05T18:06:23.246Z,80.07
2018-11-05T18:09:27.442Z,80.98
2018-11-05T18:12:31.564Z,80.28
2018-11-05T18:15:35.785Z,80.05
2018-11-05T18:18:39.886Z,80.61
2018-11-05T18:21:44.030Z,81.28
2018-11-05T18:24:48.256Z,80.87
2018-11-05T18:27:52.404Z,81.43
2018-11-05T18:30:56.566Z,80.39
2018-11-05T18:34:00.659Z,79.82
2018-11-05T18:37:04.759Z,80.31
2018-11-05T18:40:11.390Z,80.23
2018-11-05T18:43:15.500Z,80.96
2018-11-05T18:46:19.611Z,79.00
2018-11-05T18:49:23.703Z,79.67
2018-11-05T18:52:27.806Z,80.31
2018-11-05T18:55:31.918Z,79.81
2018-11-05T18:58:36.022Z,79.37
2018-11-05T19:01:40.143Z,80.59
2018-11-05T19:04:44.290Z,79.35
2018-11-05T19:07:48.625Z,80.52
2018-11-05T19:10:52.743Z,79.46
2018-11-05T19:13:57.171Z,80.55
2018-11-05T19:17:01.282Z,80.23
2018-11-05T19:20:06.678Z,80.02
2018-11-05T19:23:10.875Z,80.61
2018-11-05T19:26:14.902Z,79.93
2018-11-05T19:29:19.009Z,79.70
2018-11-05T19:32:23.127Z,80.29
2018-11-05T19:35:27.234Z,80.33
2018-11-05T19:38:31.334Z,80.02
2018-11-05T19:41:35.475Z,80.69
2018-11-05T19:44:39.659Z,80.74
2018-11-05T19:47:43.798Z,80.42
2018-11-05T19:50:47.931Z,80.15
2018-11-05T19:53:52.055Z,80.56
2018-11-05T19:56:56.167Z,80.58
2018-11-05T20:00:00.292Z,79.92
2018-11-05T20:03:04.423Z,80.70
2018-11-05T20:06:08.592Z,80.42
2018-11-05T20:09:12.640Z,80.11
2018-11-05T20:12:16.771Z,80.93
2018-11-05T20:15:20.940Z,80.57
2018-11-05T20:18:25.036Z,81.33
2018-11-05T20:21:29.108Z,80.49
2018-11-05T20:24:33.223Z,80.90
2018-11-05T20:27:38.226Z,81.77
2018-11-05T20:30:42.331Z,81.76
2018-11-05T20:33:46.710Z,82.10
2018-11-05T20:36:50.678Z,81.58
2018-11-05T20:39:54.939Z,81.75
2018-11-05T20:42:58.975Z,81.70
2018-11-05T20:46:03.110Z,81.51
2018-11-05T20:49:07.263Z,80.97
2018-11-05T20:52:11.416Z,81.04
2018-11-05T20:55:16.606Z,80.56
2018-11-05T20:58:20.807Z,80.87
2018-11-05T21:01:24.967Z,80.78
2018-11-05T21:04:29.123Z,80.78
2018-11-05T21:07:33.278Z,81.20
2018-11-05T21:10:37.422Z,81.34
2018-11-05T21:13:41.801Z,81.00
2018-11-05T21:16:45.986Z,80.08
2018-11-05T21:19:50.091Z,80.93
2018-11-05T21:22:54.403Z,80.98
2018-11-05T21:25:58.385Z,79.76
2018-11-05T21:29:02.561Z,80.23
2018-11-05T21:32:06.687Z,80.80
2018-11-05T21:35:13.200Z,79.99
2018-11-05T21:38:17.301Z,80.71
2018-11-05T21:41:21.405Z,80.81
2018-11-05T21:44:25.525Z,81.25
2018-11-05T21:47:29.743Z,80.98
2018-11-05T21:50:33.772Z,81.00
2018-11-05T21:53:37.885Z,80.99
2018-11-05T21:56:41.998Z,80.70
2018-11-05T21:59:46.114Z,80.57
2018-11-05T22:02:55.515Z,80.60
2018-11-05T22:05:59.729Z,80.46
2018-11-05T22:09:03.992Z,80.97
2018-11-05T22:12:08.090Z,81.33
2018-11-05T22:15:12.219Z,80.45
2018-11-05T22:18:17.458Z,80.79
2018-11-05T22:21:21.575Z,81.22
2018-11-05T22:24:25.701Z,80.98
2018-11-05T22:27:29.967Z,80.46
2018-11-05T22:30:34.002Z,80.15
2018-11-05T22:33:38.105Z,80.16
2018-11-05T22:36:42.223Z,80.32
2018-11-05T22:39:46.318Z,81.01
2018-11-05T22:42:50.417Z,81.12
2018-11-05T22:45:54.522Z,79.59
2018-11-05T22:48:58.622Z,80.93
2018-11-05T22:52:02.738Z,80.88
2018-11-05T22:55:07.272Z,79.89
2018-11-05T22:58:11.384Z,80.74
2018-11-05T23:01:20.834Z,80.98
2018-11-05T23:04:24.955Z,80.75
2018-11-05T23:07:29.071Z,81.12
2018-11-05T23:10:33.177Z,80.69
2018-11-05T23:13:37.293Z,81.10
2018-11-05T23:16:41.413Z,80.37
2018-11-05T23:19:45.513Z,80.48
2018-11-05T23:22:49.629Z,80.57
2018-11-05T23:25:53.744Z,79.61
2018-11-05T23:28:57.862Z,80.38
2018-11-05T23:32:01.992Z,80.21
2018-11-05T23:35:06.724Z,80.45
2018-11-05T23:38:10.832Z,80.50
2018-11-05T23:41:14.955Z,80.70
2018-11-05T23:44:19.077Z,80.22
2018-11-05T23:47:27.604Z,80.48
2018-11-05T23:50:31.702Z,80.14
2018-11-05T23:53:35.813Z,80.60
2018-11-05T23:56:39.921Z,81.09
2018-11-05T23:59:44.037Z,82.51
